sensor_id;sensor_type;location;lat;lon;timestamp;temperature;humidity
75899;DHT22;64576;50.460;4.866;2023-12-20T00:00:54;5.85;99.99
75899;DHT22;64576;50.460;4.866;2023-12-20T00:03:19;5.79;99.99
75899;DHT22;64576;50.460;4.866;2023-12-20T00:05:45;5.66;99.99
75899;DHT22;64576;50.460;4.866;2023-12-20T00:08:10;5.58;99.99
75899;DHT22;64576;50.460;4.866;2023-12-20T00:10:36;5.41;99.99
75899;DHT22;64576;50.460;4.866;2023-12-20T00:13:01;5.30;99.99
75899;DHT22;64576;50.460;4.866;2023-12-20T00:15:26;5.21;99.99
75899;DHT22;64576;50.460;4.866;2023-12-20T00:17:52;5.18;99.99
75899;DHT22;64576;50.460;4.866;2023-12-20T00:20:17;5.17;99.99
75899;DHT22;64576;50.460;4.866;2023-12-20T00:22:43;5.08;99.99
75899;DHT22;64576;50.460;4.866;2023-12-20T00:25:08;4.93;99.99
75899;DHT22;64576;50.460;4.866;2023-12-20T00:27:34;5.08;99.99
75899;DHT22;64576;50.460;4.866;2023-12-20T00:30:00;4.99;99.99
75899;DHT22;64576;50.460;4.866;2023-12-20T00:32:25;4.83;99.99
75899;DHT22;64576;50.460;4.866;2023-12-20T00:34:51;4.81;99.99
75899;DHT22;64576;50.460;4.866;2023-12-20T00:37:16;4.77;99.99
75899;DHT22;64576;50.460;4.866;2023-12-20T00:39:41;4.73;99.99
75899;DHT22;64576;50.460;4.866;2023-12-20T00:42:07;4.76;99.99
75899;DHT22;64576;50.460;4.866;2023-12-20T00:44:32;4.77;99.99
75899;DHT22;64576;50.460;4.866;2023-12-20T00:46:58;4.68;99.99
75899;DHT22;64576;50.460;4.866;2023-12-20T00:49:23;4.83;99.99
75899;DHT22;64576;50.460;4.866;2023-12-20T00:51:49;4.79;99.99
75899;DHT22;64576;50.460;4.866;2023-12-20T00:54:16;4.84;99.99
75899;DHT22;64576;50.460;4.866;2023-12-20T00:56:41;4.83;99.99
75899;DHT22;64576;50.460;4.866;2023-12-20T00:59:06;4.81;99.99
75899;DHT22;64576;50.460;4.866;2023-12-20T01:01:32;4.80;99.99
75899;DHT22;64576;50.460;4.866;2023-12-20T01:03:58;4.77;99.99
75899;DHT22;64576;50.460;4.866;2023-12-20T01:06:24;4.81;99.99
75899;DHT22;64576;50.460;4.866;2023-12-20T01:08:49;4.90;99.99
75899;DHT22;64576;50.460;4.866;2023-12-20T01:11:14;4.80;99.99
75899;DHT22;64576;50.460;4.866;2023-12-20T01:13:40;4.86;99.99
75899;DHT22;64576;50.460;4.866;2023-12-20T01:16:05;4.91;99.99
75899;DHT22;64576;50.460;4.866;2023-12-20T01:18:31;4.90;99.99
75899;DHT22;64576;50.460;4.866;2023-12-20T01:21:01;4.86;99.99
75899;DHT22;64576;50.460;4.866;2023-12-20T01:23:27;4.80;99.99
75899;DHT22;64576;50.460;4.866;2023-12-20T01:25:52;4.75;99.99
75899;DHT22;64576;50.460;4.866;2023-12-20T01:28:19;4.68;99.99
75899;DHT22;64576;50.460;4.866;2023-12-20T01:30:44;4.66;99.99
75899;DHT22;64576;50.460;4.866;2023-12-20T01:33:10;4.56;99.99
75899;DHT22;64576;50.460;4.866;2023-12-20T01:35:35;4.55;99.99
75899;DHT22;64576;50.460;4.866;2023-12-20T01:38:00;4.49;99.99
75899;DHT22;64576;50.460;4.866;2023-12-20T01:40:26;4.55;99.99
75899;DHT22;64576;50.460;4.866;2023-12-20T01:43:08;4.52;99.99
75899;DHT22;64576;50.460;4.866;2023-12-20T01:45:34;4.53;99.99
75899;DHT22;64576;50.460;4.866;2023-12-20T01:48:00;4.40;99.99
75899;DHT22;64576;50.460;4.866;2023-12-20T01:50:28;4.48;99.99
75899;DHT22;64576;50.460;4.866;2023-12-20T01:52:55;4.61;99.99
75899;DHT22;64576;50.460;4.866;2023-12-20T01:55:23;4.63;99.99
75899;DHT22;64576;50.460;4.866;2023-12-20T01:57:49;4.63;99.99
75899;DHT22;64576;50.460;4.866;2023-12-20T02:00:15;4.65;99.99
75899;DHT22;64576;50.460;4.866;2023-12-20T02:02:43;4.59;99.99
75899;DHT22;64576;50.460;4.866;2023-12-20T02:05:12;4.52;99.99
75899;DHT22;64576;50.460;4.866;2023-12-20T02:07:38;4.52;99.99
75899;DHT22;64576;50.460;4.866;2023-12-20T02:10:04;4.51;99.99
75899;DHT22;64576;50.460;4.866;2023-12-20T02:12:30;4.40;99.99
75899;DHT22;64576;50.460;4.866;2023-12-20T02:14:55;4.38;99.99
75899;DHT22;64576;50.460;4.866;2023-12-20T02:17:21;4.38;99.99
75899;DHT22;64576;50.460;4.866;2023-12-20T02:19:47;4.40;99.99
75899;DHT22;64576;50.460;4.866;2023-12-20T02:22:12;4.46;99.99
75899;DHT22;64576;50.460;4.866;2023-12-20T02:24:38;4.35;99.99
75899;DHT22;64576;50.460;4.866;2023-12-20T02:27:06;4.48;99.99
75899;DHT22;64576;50.460;4.866;2023-12-20T02:29:33;4.49;99.99
75899;DHT22;64576;50.460;4.866;2023-12-20T02:31:58;4.42;99.99
75899;DHT22;64576;50.460;4.866;2023-12-20T02:34:24;4.52;99.99
75899;DHT22;64576;50.460;4.866;2023-12-20T02:36:49;4.45;99.99
75899;DHT22;64576;50.460;4.866;2023-12-20T02:39:16;4.40;99.99
75899;DHT22;64576;50.460;4.866;2023-12-20T02:41:41;4.30;99.99
75899;DHT22;64576;50.460;4.866;2023-12-20T02:44:07;4.37;99.99
75899;DHT22;64576;50.460;4.866;2023-12-20T02:46:32;4.38;99.99
75899;DHT22;64576;50.460;4.866;2023-12-20T02:48:58;4.41;99.99
75899;DHT22;64576;50.460;4.866;2023-12-20T02:51:23;4.30;99.99
75899;DHT22;64576;50.460;4.866;2023-12-20T02:53:48;4.34;99.99
75899;DHT22;64576;50.460;4.866;2023-12-20T02:56:14;4.31;99.99
75899;DHT22;64576;50.460;4.866;2023-12-20T02:58:39;4.24;99.99
75899;DHT22;64576;50.460;4.866;2023-12-20T03:01:05;4.27;99.99
75899;DHT22;64576;50.460;4.866;2023-12-20T03:03:31;4.21;99.99
75899;DHT22;64576;50.460;4.866;2023-12-20T03:05:56;4.17;99.99
75899;DHT22;64576;50.460;4.866;2023-12-20T03:08:22;4.08;99.99
75899;DHT22;64576;50.460;4.866;2023-12-20T03:10:47;4.11;99.99
75899;DHT22;64576;50.460;4.866;2023-12-20T03:13:13;4.13;99.99
75899;DHT22;64576;50.460;4.866;2023-12-20T03:15:38;4.11;99.99
75899;DHT22;64576;50.460;4.866;2023-12-20T03:18:04;4.05;99.99
75899;DHT22;64576;50.460;4.866;2023-12-20T03:20:29;4.07;99.99
75899;DHT22;64576;50.460;4.866;2023-12-20T03:22:58;4.07;99.99
75899;DHT22;64576;50.460;4.866;2023-12-20T03:25:23;4.07;99.99
75899;DHT22;64576;50.460;4.866;2023-12-20T03:27:49;4.00;99.99
75899;DHT22;64576;50.460;4.866;2023-12-20T03:30:14;3.97;99.99
75899;DHT22;64576;50.460;4.866;2023-12-20T03:32:39;4.00;99.99
75899;DHT22;64576;50.460;4.866;2023-12-20T03:35:05;3.97;99.99
75899;DHT22;64576;50.460;4.866;2023-12-20T03:37:31;3.91;99.99
75899;DHT22;64576;50.460;4.866;2023-12-20T03:39:56;3.89;99.99
75899;DHT22;64576;50.460;4.866;2023-12-20T03:42:22;3.83;99.99
75899;DHT22;64576;50.460;4.866;2023-12-20T03:44:47;3.82;99.99
75899;DHT22;64576;50.460;4.866;2023-12-20T03:47:12;3.80;99.99
75899;DHT22;64576;50.460;4.866;2023-12-20T03:49:41;3.86;99.99
75899;DHT22;64576;50.460;4.866;2023-12-20T03:52:06;3.87;99.99
75899;DHT22;64576;50.460;4.866;2023-12-20T03:54:33;3.90;99.99
75899;DHT22;64576;50.460;4.866;2023-12-20T03:56:58;3.96;99.99
75899;DHT22;64576;50.460;4.866;2023-12-20T03:59:23;3.90;99.99
75899;DHT22;64576;50.460;4.866;2023-12-20T04:01:49;3.96;99.99
75899;DHT22;64576;50.460;4.866;2023-12-20T04:04:14;4.01;99.99
75899;DHT22;64576;50.460;4.866;2023-12-20T04:06:40;4.05;99.99
75899;DHT22;64576;50.460;4.866;2023-12-20T04:09:05;4.03;99.99
75899;DHT22;64576;50.460;4.866;2023-12-20T04:11:30;4.08;99.99
75899;DHT22;64576;50.460;4.866;2023-12-20T04:13:56;4.10;99.99
75899;DHT22;64576;50.460;4.866;2023-12-20T04:16:21;4.08;99.99
75899;DHT22;64576;50.460;4.866;2023-12-20T04:18:47;4.13;99.99
75899;DHT22;64576;50.460;4.866;2023-12-20T04:21:12;4.14;99.99
75899;DHT22;64576;50.460;4.866;2023-12-20T04:23:37;4.13;99.99
75899;DHT22;64576;50.460;4.866;2023-12-20T04:26:03;4.20;99.99
75899;DHT22;64576;50.460;4.866;2023-12-20T04:28:28;4.18;99.99
75899;DHT22;64576;50.460;4.866;2023-12-20T04:30:55;4.22;99.99
75899;DHT22;64576;50.460;4.866;2023-12-20T04:33:21;4.22;99.99
75899;DHT22;64576;50.460;4.866;2023-12-20T04:35:47;4.24;99.99
75899;DHT22;64576;50.460;4.866;2023-12-20T04:38:12;4.30;99.99
75899;DHT22;64576;50.460;4.866;2023-12-20T04:40:37;4.30;99.99
75899;DHT22;64576;50.460;4.866;2023-12-20T04:43:03;4.31;99.99
75899;DHT22;64576;50.460;4.866;2023-12-20T04:45:29;4.37;99.99
75899;DHT22;64576;50.460;4.866;2023-12-20T04:47:55;4.35;99.99
75899;DHT22;64576;50.460;4.866;2023-12-20T04:50:20;4.40;99.99
75899;DHT22;64576;50.460;4.866;2023-12-20T04:52:46;4.38;99.99
75899;DHT22;64576;50.460;4.866;2023-12-20T04:55:12;4.41;99.99
75899;DHT22;64576;50.460;4.866;2023-12-20T04:57:37;4.46;99.99
75899;DHT22;64576;50.460;4.866;2023-12-20T05:00:03;4.44;99.99
75899;DHT22;64576;50.460;4.866;2023-12-20T05:02:30;4.46;99.99
75899;DHT22;64576;50.460;4.866;2023-12-20T05:04:55;4.51;99.99
75899;DHT22;64576;50.460;4.866;2023-12-20T05:07:21;4.51;99.99
75899;DHT22;64576;50.460;4.866;2023-12-20T05:09:47;4.55;99.99
75899;DHT22;64576;50.460;4.866;2023-12-20T05:12:12;4.61;99.99
75899;DHT22;64576;50.460;4.866;2023-12-20T05:14:37;4.61;99.99
75899;DHT22;64576;50.460;4.866;2023-12-20T05:17:03;4.55;99.99
75899;DHT22;64576;50.460;4.866;2023-12-20T05:19:29;4.56;99.99
75899;DHT22;64576;50.460;4.866;2023-12-20T05:21:54;4.58;99.99
75899;DHT22;64576;50.460;4.866;2023-12-20T05:24:19;4.53;99.99
75899;DHT22;64576;50.460;4.866;2023-12-20T05:26:45;4.56;99.99
75899;DHT22;64576;50.460;4.866;2023-12-20T05:29:10;4.58;99.99
75899;DHT22;64576;50.460;4.866;2023-12-20T05:31:35;4.56;99.99
75899;DHT22;64576;50.460;4.866;2023-12-20T05:34:01;4.61;99.99
75899;DHT22;64576;50.460;4.866;2023-12-20T05:36:26;4.59;99.99
75899;DHT22;64576;50.460;4.866;2023-12-20T05:38:52;4.63;99.99
75899;DHT22;64576;50.460;4.866;2023-12-20T05:41:17;4.65;99.99
75899;DHT22;64576;50.460;4.866;2023-12-20T05:43:42;4.68;99.99
75899;DHT22;64576;50.460;4.866;2023-12-20T05:46:10;4.65;99.99
75899;DHT22;64576;50.460;4.866;2023-12-20T05:48:36;4.62;99.99
75899;DHT22;64576;50.460;4.866;2023-12-20T05:51:01;4.59;99.99
75899;DHT22;64576;50.460;4.866;2023-12-20T05:53:27;4.59;99.99
75899;DHT22;64576;50.460;4.866;2023-12-20T05:55:52;4.59;99.99
75899;DHT22;64576;50.460;4.866;2023-12-20T05:58:18;4.62;99.99
75899;DHT22;64576;50.460;4.866;2023-12-20T06:00:43;4.63;99.99
75899;DHT22;64576;50.460;4.866;2023-12-20T06:03:08;4.68;99.99
75899;DHT22;64576;50.460;4.866;2023-12-20T06:05:34;4.65;99.99
75899;DHT22;64576;50.460;4.866;2023-12-20T06:07:59;4.62;99.99
75899;DHT22;64576;50.460;4.866;2023-12-20T06:10:28;4.66;99.99
75899;DHT22;64576;50.460;4.866;2023-12-20T06:12:53;4.61;99.99
75899;DHT22;64576;50.460;4.866;2023-12-20T06:15:19;4.61;99.99
75899;DHT22;64576;50.460;4.866;2023-12-20T06:17:45;4.61;99.99
75899;DHT22;64576;50.460;4.866;2023-12-20T06:20:11;4.66;99.99
75899;DHT22;64576;50.460;4.866;2023-12-20T06:22:38;4.61;99.99
75899;DHT22;64576;50.460;4.866;2023-12-20T06:25:04;4.65;99.99
75899;DHT22;64576;50.460;4.866;2023-12-20T06:27:29;4.62;99.99
75899;DHT22;64576;50.460;4.866;2023-12-20T06:29:55;4.65;99.99
75899;DHT22;64576;50.460;4.866;2023-12-20T06:32:21;4.63;99.99
75899;DHT22;64576;50.460;4.866;2023-12-20T06:34:48;4.58;99.99
75899;DHT22;64576;50.460;4.866;2023-12-20T06:37:13;4.62;99.99
75899;DHT22;64576;50.460;4.866;2023-12-20T06:39:40;4.56;99.99
75899;DHT22;64576;50.460;4.866;2023-12-20T06:42:05;4.55;99.99
75899;DHT22;64576;50.460;4.866;2023-12-20T06:44:31;4.53;99.99
75899;DHT22;64576;50.460;4.866;2023-12-20T06:46:57;4.53;99.99
75899;DHT22;64576;50.460;4.866;2023-12-20T06:49:22;4.53;99.99
75899;DHT22;64576;50.460;4.866;2023-12-20T06:51:48;4.51;99.99
75899;DHT22;64576;50.460;4.866;2023-12-20T06:54:13;4.49;99.99
75899;DHT22;64576;50.460;4.866;2023-12-20T06:56:38;4.42;99.99
75899;DHT22;64576;50.460;4.866;2023-12-20T06:59:04;4.41;99.99
75899;DHT22;64576;50.460;4.866;2023-12-20T07:01:29;4.41;99.99
75899;DHT22;64576;50.460;4.866;2023-12-20T07:03:55;4.34;99.99
75899;DHT22;64576;50.460;4.866;2023-12-20T07:06:20;4.34;99.99
75899;DHT22;64576;50.460;4.866;2023-12-20T07:08:46;4.31;99.99
75899;DHT22;64576;50.460;4.866;2023-12-20T07:11:11;4.30;99.99
75899;DHT22;64576;50.460;4.866;2023-12-20T07:13:37;4.25;99.99
75899;DHT22;64576;50.460;4.866;2023-12-20T07:16:02;4.25;99.99
75899;DHT22;64576;50.460;4.866;2023-12-20T07:18:28;4.20;99.99
75899;DHT22;64576;50.460;4.866;2023-12-20T07:20:53;4.21;99.99
75899;DHT22;64576;50.460;4.866;2023-12-20T07:23:19;4.21;99.99
75899;DHT22;64576;50.460;4.866;2023-12-20T07:25:45;4.17;99.99
75899;DHT22;64576;50.460;4.866;2023-12-20T07:28:10;4.17;99.99
75899;DHT22;64576;50.460;4.866;2023-12-20T07:30:36;4.15;99.99
75899;DHT22;64576;50.460;4.866;2023-12-20T07:33:01;4.13;99.99
75899;DHT22;64576;50.460;4.866;2023-12-20T07:35:27;4.08;99.99
75899;DHT22;64576;50.460;4.866;2023-12-20T07:37:54;4.10;99.99
75899;DHT22;64576;50.460;4.866;2023-12-20T07:40:20;4.07;99.99
75899;DHT22;64576;50.460;4.866;2023-12-20T07:42:45;4.01;99.99
75899;DHT22;64576;50.460;4.866;2023-12-20T07:45:10;3.94;99.99
75899;DHT22;64576;50.460;4.866;2023-12-20T07:47:37;3.94;99.99
75899;DHT22;64576;50.460;4.866;2023-12-20T07:50:02;4.03;99.99
75899;DHT22;64576;50.460;4.866;2023-12-20T07:52:29;4.05;99.99
75899;DHT22;64576;50.460;4.866;2023-12-20T07:54:54;4.03;99.99
75899;DHT22;64576;50.460;4.866;2023-12-20T07:57:20;4.00;99.99
75899;DHT22;64576;50.460;4.866;2023-12-20T07:59:46;3.89;99.99
75899;DHT22;64576;50.460;4.866;2023-12-20T08:02:11;3.89;99.99
75899;DHT22;64576;50.460;4.866;2023-12-20T08:04:37;3.94;99.99
75899;DHT22;64576;50.460;4.866;2023-12-20T08:07:03;3.94;99.99
75899;DHT22;64576;50.460;4.866;2023-12-20T08:09:28;3.94;99.99
75899;DHT22;64576;50.460;4.866;2023-12-20T08:11:54;3.93;99.99
75899;DHT22;64576;50.460;4.866;2023-12-20T08:14:19;3.91;99.99
75899;DHT22;64576;50.460;4.866;2023-12-20T08:16:46;3.87;99.99
75899;DHT22;64576;50.460;4.866;2023-12-20T08:19:12;3.87;99.99
75899;DHT22;64576;50.460;4.866;2023-12-20T08:21:38;3.89;99.99
75899;DHT22;64576;50.460;4.866;2023-12-20T08:24:04;3.89;99.99
75899;DHT22;64576;50.460;4.866;2023-12-20T08:26:30;3.89;99.99
75899;DHT22;64576;50.460;4.866;2023-12-20T08:28:55;3.86;99.99
75899;DHT22;64576;50.460;4.866;2023-12-20T08:31:20;3.85;99.99
75899;DHT22;64576;50.460;4.866;2023-12-20T08:33:47;3.89;99.99
75899;DHT22;64576;50.460;4.866;2023-12-20T08:36:13;3.91;99.99
75899;DHT22;64576;50.460;4.866;2023-12-20T08:38:39;3.94;99.99
75899;DHT22;64576;50.460;4.866;2023-12-20T08:41:04;3.96;99.99
75899;DHT22;64576;50.460;4.866;2023-12-20T08:43:36;3.96;99.99
75899;DHT22;64576;50.460;4.866;2023-12-20T08:46:01;4.05;99.99
75899;DHT22;64576;50.460;4.866;2023-12-20T08:48:28;4.80;99.99
75899;DHT22;64576;50.460;4.866;2023-12-20T08:50:53;4.90;99.99
75899;DHT22;64576;50.460;4.866;2023-12-20T08:53:19;5.25;99.99
75899;DHT22;64576;50.460;4.866;2023-12-20T08:55:44;5.36;99.99
75899;DHT22;64576;50.460;4.866;2023-12-20T08:58:10;5.73;98.81
75899;DHT22;64576;50.460;4.866;2023-12-20T09:00:35;5.82;97.99
75899;DHT22;64576;50.460;4.866;2023-12-20T09:03:01;6.14;97.54
75899;DHT22;64576;50.460;4.866;2023-12-20T09:05:27;6.13;96.78
75899;DHT22;64576;50.460;4.866;2023-12-20T09:07:53;5.08;99.99
75899;DHT22;64576;50.460;4.866;2023-12-20T09:10:18;4.86;99.99
75899;DHT22;64576;50.460;4.866;2023-12-20T09:12:49;4.75;99.99
75899;DHT22;64576;50.460;4.866;2023-12-20T09:15:15;4.77;99.99
75899;DHT22;64576;50.460;4.866;2023-12-20T09:17:40;4.72;99.99
75899;DHT22;64576;50.460;4.866;2023-12-20T09:20:07;4.63;99.99
75899;DHT22;64576;50.460;4.866;2023-12-20T09:22:34;4.63;99.99
75899;DHT22;64576;50.460;4.866;2023-12-20T09:24:59;4.89;99.99
75899;DHT22;64576;50.460;4.866;2023-12-20T09:27:25;5.85;99.90
75899;DHT22;64576;50.460;4.866;2023-12-20T09:29:51;5.73;98.94
75899;DHT22;64576;50.460;4.866;2023-12-20T09:32:16;5.13;99.99
75899;DHT22;64576;50.460;4.866;2023-12-20T09:34:42;4.94;99.99
75899;DHT22;64576;50.460;4.866;2023-12-20T09:37:07;5.07;99.99
75899;DHT22;64576;50.460;4.866;2023-12-20T09:39:34;5.28;99.99
75899;DHT22;64576;50.460;4.866;2023-12-20T09:42:01;5.35;99.99
75899;DHT22;64576;50.460;4.866;2023-12-20T09:44:27;5.24;99.99
75899;DHT22;64576;50.460;4.866;2023-12-20T09:46:54;5.27;99.99
75899;DHT22;64576;50.460;4.866;2023-12-20T09:49:21;5.28;99.99
75899;DHT22;64576;50.460;4.866;2023-12-20T09:51:46;5.25;99.99
75899;DHT22;64576;50.460;4.866;2023-12-20T09:54:16;5.18;99.99
75899;DHT22;64576;50.460;4.866;2023-12-20T09:56:42;5.23;99.99
75899;DHT22;64576;50.460;4.866;2023-12-20T09:59:08;5.24;99.99
75899;DHT22;64576;50.460;4.866;2023-12-20T10:01:34;5.32;99.99
75899;DHT22;64576;50.460;4.866;2023-12-20T10:04:00;5.35;99.99
75899;DHT22;64576;50.460;4.866;2023-12-20T10:06:32;5.46;99.99
75899;DHT22;64576;50.460;4.866;2023-12-20T10:08:57;5.51;99.99
75899;DHT22;64576;50.460;4.866;2023-12-20T10:11:23;5.55;99.99
75899;DHT22;64576;50.460;4.866;2023-12-20T10:13:49;5.59;99.99
75899;DHT22;64576;50.460;4.866;2023-12-20T10:16:15;5.63;99.99
75899;DHT22;64576;50.460;4.866;2023-12-20T10:18:41;5.70;99.99
75899;DHT22;64576;50.460;4.866;2023-12-20T10:21:07;5.72;99.99
75899;DHT22;64576;50.460;4.866;2023-12-20T10:23:36;5.73;99.99
75899;DHT22;64576;50.460;4.866;2023-12-20T10:26:02;5.76;99.99
75899;DHT22;64576;50.460;4.866;2023-12-20T10:28:33;5.73;99.99
75899;DHT22;64576;50.460;4.866;2023-12-20T10:31:00;5.77;99.99
75899;DHT22;64576;50.460;4.866;2023-12-20T10:33:30;5.83;99.99
75899;DHT22;64576;50.460;4.866;2023-12-20T10:35:57;5.89;99.96
75899;DHT22;64576;50.460;4.866;2023-12-20T10:38:23;5.96;99.86
75899;DHT22;64576;50.460;4.866;2023-12-20T10:40:49;5.89;99.67
75899;DHT22;64576;50.460;4.866;2023-12-20T10:43:37;5.94;99.81
75899;DHT22;64576;50.460;4.866;2023-12-20T10:46:05;5.92;99.88
75899;DHT22;64576;50.460;4.866;2023-12-20T10:48:30;6.00;99.65
75899;DHT22;64576;50.460;4.866;2023-12-20T10:50:57;6.00;99.86
75899;DHT22;64576;50.460;4.866;2023-12-20T10:53:24;6.07;99.99
75899;DHT22;64576;50.460;4.866;2023-12-20T10:55:55;6.01;99.72
75899;DHT22;64576;50.460;4.866;2023-12-20T10:58:22;6.07;99.46
75899;DHT22;64576;50.460;4.866;2023-12-20T11:00:59;6.06;99.60
75899;DHT22;64576;50.460;4.866;2023-12-20T11:03:27;6.06;99.52
75899;DHT22;64576;50.460;4.866;2023-12-20T11:06:10;6.13;99.45
75899;DHT22;64576;50.460;4.866;2023-12-20T11:08:47;6.14;99.23
75899;DHT22;64576;50.460;4.866;2023-12-20T11:11:25;6.25;99.04
75899;DHT22;64576;50.460;4.866;2023-12-20T11:13:59;6.34;99.17
75899;DHT22;64576;50.460;4.866;2023-12-20T11:16:25;6.31;99.15
75899;DHT22;64576;50.460;4.866;2023-12-20T11:18:51;6.38;98.92
75899;DHT22;64576;50.460;4.866;2023-12-20T11:21:16;6.45;99.27
75899;DHT22;64576;50.460;4.866;2023-12-20T11:23:42;6.50;99.23
75899;DHT22;64576;50.460;4.866;2023-12-20T11:26:08;6.52;98.87
75899;DHT22;64576;50.460;4.866;2023-12-20T11:28:38;6.48;98.90
75899;DHT22;64576;50.460;4.866;2023-12-20T11:31:05;6.46;98.87
75899;DHT22;64576;50.460;4.866;2023-12-20T11:33:36;6.52;99.03
75899;DHT22;64576;50.460;4.866;2023-12-20T11:36:02;6.45;99.03
75899;DHT22;64576;50.460;4.866;2023-12-20T11:38:36;6.48;99.08
75899;DHT22;64576;50.460;4.866;2023-12-20T11:41:01;6.55;99.12
75899;DHT22;64576;50.460;4.866;2023-12-20T11:43:35;6.58;99.15
75899;DHT22;64576;50.460;4.866;2023-12-20T11:46:05;6.53;99.08
75899;DHT22;64576;50.460;4.866;2023-12-20T11:48:31;6.55;99.26
75899;DHT22;64576;50.460;4.866;2023-12-20T11:50:57;6.62;99.29
75899;DHT22;64576;50.460;4.866;2023-12-20T11:53:23;6.49;99.31
75899;DHT22;64576;50.460;4.866;2023-12-20T11:55:49;6.53;99.28
75899;DHT22;64576;50.460;4.866;2023-12-20T11:58:15;6.62;99.08
75899;DHT22;64576;50.460;4.866;2023-12-20T12:00:42;6.62;99.15
75899;DHT22;64576;50.460;4.866;2023-12-20T12:03:08;6.62;99.08
75899;DHT22;64576;50.460;4.866;2023-12-20T12:05:35;6.68;99.10
75899;DHT22;64576;50.460;4.866;2023-12-20T12:08:01;6.65;99.22
75899;DHT22;64576;50.460;4.866;2023-12-20T12:10:28;6.71;98.98
75899;DHT22;64576;50.460;4.866;2023-12-20T12:12:56;6.72;99.30
75899;DHT22;64576;50.460;4.866;2023-12-20T12:15:22;6.71;99.35
75899;DHT22;64576;50.460;4.866;2023-12-20T12:17:54;6.75;99.24
75899;DHT22;64576;50.460;4.866;2023-12-20T12:20:20;6.72;99.72
75899;DHT22;64576;50.460;4.866;2023-12-20T12:22:46;6.62;99.99
75899;DHT22;64576;50.460;4.866;2023-12-20T12:25:22;6.56;99.99
75899;DHT22;64576;50.460;4.866;2023-12-20T12:27:47;6.64;99.99
75899;DHT22;64576;50.460;4.866;2023-12-20T12:30:16;6.58;99.99
75899;DHT22;64576;50.460;4.866;2023-12-20T12:32:44;6.55;99.99
75899;DHT22;64576;50.460;4.866;2023-12-20T12:35:09;6.53;99.99
75899;DHT22;64576;50.460;4.866;2023-12-20T12:37:38;6.55;99.99
75899;DHT22;64576;50.460;4.866;2023-12-20T12:40:06;6.61;99.99
75899;DHT22;64576;50.460;4.866;2023-12-20T12:42:44;6.65;99.99
75899;DHT22;64576;50.460;4.866;2023-12-20T12:45:36;6.69;99.99
75899;DHT22;64576;50.460;4.866;2023-12-20T12:48:05;6.77;99.99
75899;DHT22;64576;50.460;4.866;2023-12-20T12:50:46;6.80;99.99
75899;DHT22;64576;50.460;4.866;2023-12-20T12:53:25;6.87;99.99
75899;DHT22;64576;50.460;4.866;2023-12-20T12:56:04;6.79;99.99
75899;DHT22;64576;50.460;4.866;2023-12-20T12:58:54;6.83;99.99
75899;DHT22;64576;50.460;4.866;2023-12-20T13:01:23;6.82;99.99
75899;DHT22;64576;50.460;4.866;2023-12-20T13:03:57;6.85;99.99
75899;DHT22;64576;50.460;4.866;2023-12-20T13:06:26;6.89;99.99
75899;DHT22;64576;50.460;4.866;2023-12-20T13:09:04;6.86;99.99
75899;DHT22;64576;50.460;4.866;2023-12-20T13:11:36;6.85;99.99
75899;DHT22;64576;50.460;4.866;2023-12-20T13:14:10;6.85;99.99
75899;DHT22;64576;50.460;4.866;2023-12-20T13:16:41;6.76;99.99
75899;DHT22;64576;50.460;4.866;2023-12-20T13:19:10;6.69;99.99
75899;DHT22;64576;50.460;4.866;2023-12-20T13:25:07;6.71;99.99
75899;DHT22;64576;50.460;4.866;2023-12-20T13:27:33;6.69;99.99
75899;DHT22;64576;50.460;4.866;2023-12-20T13:29:59;6.71;99.99
75899;DHT22;64576;50.460;4.866;2023-12-20T13:32:24;6.76;99.99
75899;DHT22;64576;50.460;4.866;2023-12-20T13:34:50;6.79;99.99
75899;DHT22;64576;50.460;4.866;2023-12-20T13:37:15;6.76;99.99
75899;DHT22;64576;50.460;4.866;2023-12-20T13:39:41;6.76;99.99
75899;DHT22;64576;50.460;4.866;2023-12-20T13:42:06;6.83;99.99
75899;DHT22;64576;50.460;4.866;2023-12-20T13:44:32;6.80;99.99
75899;DHT22;64576;50.460;4.866;2023-12-20T13:46:58;6.82;99.99
75899;DHT22;64576;50.460;4.866;2023-12-20T13:49:23;6.83;99.99
75899;DHT22;64576;50.460;4.866;2023-12-20T13:51:53;6.89;99.99
75899;DHT22;64576;50.460;4.866;2023-12-20T13:54:20;6.92;99.99
75899;DHT22;64576;50.460;4.866;2023-12-20T13:56:47;6.94;99.99
75899;DHT22;64576;50.460;4.866;2023-12-20T13:59:13;6.99;99.99
75899;DHT22;64576;50.460;4.866;2023-12-20T14:01:39;7.01;99.99
75899;DHT22;64576;50.460;4.866;2023-12-20T14:04:04;7.04;99.99
75899;DHT22;64576;50.460;4.866;2023-12-20T14:06:30;7.01;99.99
75899;DHT22;64576;50.460;4.866;2023-12-20T14:08:55;6.97;99.99
75899;DHT22;64576;50.460;4.866;2023-12-20T14:11:21;7.00;99.99
75899;DHT22;64576;50.460;4.866;2023-12-20T14:13:46;6.99;99.99
75899;DHT22;64576;50.460;4.866;2023-12-20T14:16:12;6.94;99.99
75899;DHT22;64576;50.460;4.866;2023-12-20T14:18:38;6.94;99.99
75899;DHT22;64576;50.460;4.866;2023-12-20T14:21:05;6.94;99.99
75899;DHT22;64576;50.460;4.866;2023-12-20T14:23:31;6.99;99.99
75899;DHT22;64576;50.460;4.866;2023-12-20T14:25:58;6.97;99.99
75899;DHT22;64576;50.460;4.866;2023-12-20T14:28:25;7.01;99.99
75899;DHT22;64576;50.460;4.866;2023-12-20T14:30:50;7.03;99.99
75899;DHT22;64576;50.460;4.866;2023-12-20T14:33:16;7.03;99.99
75899;DHT22;64576;50.460;4.866;2023-12-20T14:35:41;7.00;99.99
75899;DHT22;64576;50.460;4.866;2023-12-20T14:38:09;7.08;99.99
75899;DHT22;64576;50.460;4.866;2023-12-20T14:40:34;7.11;99.99
75899;DHT22;64576;50.460;4.866;2023-12-20T14:43:00;7.13;99.99
75899;DHT22;64576;50.460;4.866;2023-12-20T14:45:26;7.15;99.99
75899;DHT22;64576;50.460;4.866;2023-12-20T14:47:52;7.23;99.99
75899;DHT22;64576;50.460;4.866;2023-12-20T14:50:18;7.20;99.99
75899;DHT22;64576;50.460;4.866;2023-12-20T14:52:44;7.21;99.99
75899;DHT22;64576;50.460;4.866;2023-12-20T14:55:10;7.25;99.99
75899;DHT22;64576;50.460;4.866;2023-12-20T14:57:36;7.31;99.99
75899;DHT22;64576;50.460;4.866;2023-12-20T15:00:02;7.30;99.99
75899;DHT22;64576;50.460;4.866;2023-12-20T15:02:28;7.34;99.99
75899;DHT22;64576;50.460;4.866;2023-12-20T15:04:53;7.30;99.99
75899;DHT22;64576;50.460;4.866;2023-12-20T15:07:19;7.28;99.99
75899;DHT22;64576;50.460;4.866;2023-12-20T15:09:45;7.21;99.99
75899;DHT22;64576;50.460;4.866;2023-12-20T15:12:12;7.25;99.99
75899;DHT22;64576;50.460;4.866;2023-12-20T15:14:38;7.28;99.99
75899;DHT22;64576;50.460;4.866;2023-12-20T15:17:03;7.27;99.99
75899;DHT22;64576;50.460;4.866;2023-12-20T15:19:30;7.28;99.99
75899;DHT22;64576;50.460;4.866;2023-12-20T15:21:56;7.23;99.99
75899;DHT22;64576;50.460;4.866;2023-12-20T15:24:21;7.25;99.99
75899;DHT22;64576;50.460;4.866;2023-12-20T15:26:53;7.28;99.99
75899;DHT22;64576;50.460;4.866;2023-12-20T15:29:19;7.31;99.99
75899;DHT22;64576;50.460;4.866;2023-12-20T15:31:48;7.28;99.99
75899;DHT22;64576;50.460;4.866;2023-12-20T15:34:14;7.28;99.99
75899;DHT22;64576;50.460;4.866;2023-12-20T15:36:40;7.25;99.99
75899;DHT22;64576;50.460;4.866;2023-12-20T15:39:06;7.23;99.99
75899;DHT22;64576;50.460;4.866;2023-12-20T15:41:34;7.24;99.99
75899;DHT22;64576;50.460;4.866;2023-12-20T15:43:59;7.20;99.99